sensor_id;sensor_type;location;lat;lon;timestamp;pressure;altitude;pressure_sealevel;temperature;humidity
20037;BME280;10179;42.640;23.312;2024-03-25T00:01:58;92436.63;;;8.35;61.99
20037;BME280;10179;42.640;23.312;2024-03-25T00:04:23;92400.34;;;8.22;62.10
20037;BME280;10179;42.640;23.312;2024-03-25T00:06:49;92428.22;;;8.33;62.22
20037;BME280;10179;42.640;23.312;2024-03-25T00:09:14;92418.78;;;8.32;62.37
20037;BME280;10179;42.640;23.312;2024-03-25T00:11:40;92295.28;;;7.48;61.85
20037;BME280;10179;42.640;23.312;2024-03-25T00:14:06;92328.50;;;7.69;61.95
20037;BME280;10179;42.640;23.312;2024-03-25T00:16:31;92260.94;;;7.22;61.96
20037;BME280;10179;42.640;23.312;2024-03-25T00:18:57;92405.66;;;8.10;62.50
20037;BME280;10179;42.640;23.312;2024-03-25T00:21:22;92387.94;;;7.96;62.52
20037;BME280;10179;42.640;23.312;2024-03-25T00:23:47;92413.19;;;8.07;62.66
20037;BME280;10179;42.640;23.312;2024-03-25T00:26:13;92402.19;;;8.05;63.34
20037;BME280;10179;42.640;23.312;2024-03-25T00:28:38;92277.25;;;7.29;63.17
20037;BME280;10179;42.640;23.312;2024-03-25T00:31:04;92275.97;;;7.32;63.61
20037;BME280;10179;42.640;23.312;2024-03-25T00:33:29;92292.59;;;7.09;63.74
20037;BME280;10179;42.640;23.312;2024-03-25T00:35:55;92387.78;;;8.02;63.58
20037;BME280;10179;42.640;23.312;2024-03-25T00:38:20;92337.50;;;7.78;64.01
20037;BME280;10179;42.640;23.312;2024-03-25T00:40:45;92400.34;;;8.22;64.38
20037;BME280;10179;42.640;23.312;2024-03-25T00:43:11;92284.44;;;7.56;64.10
20037;BME280;10179;42.640;23.312;2024-03-25T00:45:37;92393.13;;;8.29;64.00
20037;BME280;10179;42.640;23.312;2024-03-25T00:48:03;92407.78;;;8.30;64.23
20037;BME280;10179;42.640;23.312;2024-03-25T00:50:28;92369.94;;;8.16;64.13
20037;BME280;10179;42.640;23.312;2024-03-25T00:52:54;92396.13;;;8.38;64.07
20037;BME280;10179;42.640;23.312;2024-03-25T00:55:19;92395.34;;;8.38;63.62
20037;BME280;10179;42.640;23.312;2024-03-25T00:57:46;92330.38;;;7.91;63.98
20037;BME280;10179;42.640;23.312;2024-03-25T01:00:12;92294.00;;;7.67;63.48
20037;BME280;10179;42.640;23.312;2024-03-25T01:02:37;92386.78;;;8.25;63.44
20037;BME280;10179;42.640;23.312;2024-03-25T01:05:04;92233.91;;;7.28;63.75
20037;BME280;10179;42.640;23.312;2024-03-25T01:07:30;92313.22;;;7.78;63.87
20037;BME280;10179;42.640;23.312;2024-03-25T01:09:56;92350.94;;;8.04;63.57
20037;BME280;10179;42.640;23.312;2024-03-25T01:12:21;92313.03;;;7.84;63.69
20037;BME280;10179;42.640;23.312;2024-03-25T01:14:46;92308.38;;;7.86;64.13
20037;BME280;10179;42.640;23.312;2024-03-25T01:17:12;92226.44;;;7.37;63.85
20037;BME280;10179;42.640;23.312;2024-03-25T01:19:37;92314.84;;;8.01;64.19
20037;BME280;10179;42.640;23.312;2024-03-25T01:22:03;92352.81;;;8.25;64.13
20037;BME280;10179;42.640;23.312;2024-03-25T01:24:30;92339.16;;;8.23;64.00
20037;BME280;10179;42.640;23.312;2024-03-25T01:26:55;92351.19;;;8.24;64.65
20037;BME280;10179;42.640;23.312;2024-03-25T01:29:21;92353.09;;;8.29;64.42
20037;BME280;10179;42.640;23.312;2024-03-25T01:31:47;92357.28;;;8.30;64.20
20037;BME280;10179;42.640;23.312;2024-03-25T01:34:12;92226.81;;;7.46;64.46
20037;BME280;10179;42.640;23.312;2024-03-25T01:36:37;92340.50;;;8.26;64.44
20037;BME280;10179;42.640;23.312;2024-03-25T01:39:04;92358.72;;;8.38;64.59
20037;BME280;10179;42.640;23.312;2024-03-25T01:41:30;92366.88;;;8.41;64.72
20037;BME280;10179;42.640;23.312;2024-03-25T01:43:56;92340.06;;;8.34;64.72
20037;BME280;10179;42.640;23.312;2024-03-25T01:46:21;92358.88;;;8.53;64.61
20037;BME280;10179;42.640;23.312;2024-03-25T01:48:48;92347.41;;;8.54;64.70
20037;BME280;10179;42.640;23.312;2024-03-25T01:51:16;92270.13;;;8.02;64.73
20037;BME280;10179;42.640;23.312;2024-03-25T01:53:43;92349.84;;;8.60;64.53
20037;BME280;10179;42.640;23.312;2024-03-25T01:56:10;92356.91;;;8.60;64.41
20037;BME280;10179;42.640;23.312;2024-03-25T01:58:36;92367.91;;;8.62;63.92
20037;BME280;10179;42.640;23.312;2024-03-25T02:01:03;92373.09;;;8.57;64.02
20037;BME280;10179;42.640;23.312;2024-03-25T02:03:29;92364.19;;;8.36;63.96
20037;BME280;10179;42.640;23.312;2024-03-25T02:06:02;92388.19;;;8.50;64.23
20037;BME280;10179;42.640;23.312;2024-03-25T02:08:29;92319.50;;;7.99;63.80
20037;BME280;10179;42.640;23.312;2024-03-25T02:10:56;92394.91;;;8.46;63.94
20037;BME280;10179;42.640;23.312;2024-03-25T02:13:23;92280.38;;;7.65;63.87
20037;BME280;10179;42.640;23.312;2024-03-25T02:15:49;92333.53;;;7.93;62.89
20037;BME280;10179;42.640;23.312;2024-03-25T02:18:19;92388.66;;;8.08;62.74
20037;BME280;10179;42.640;23.312;2024-03-25T02:20:45;92286.75;;;7.35;62.66
20037;BME280;10179;42.640;23.312;2024-03-25T02:23:11;92403.72;;;8.01;62.92
20037;BME280;10179;42.640;23.312;2024-03-25T02:25:38;92396.25;;;7.93;63.53
20037;BME280;10179;42.640;23.312;2024-03-25T02:28:04;92369.34;;;7.75;64.04
20037;BME280;10179;42.640;23.312;2024-03-25T02:30:29;92349.25;;;7.59;63.93
20037;BME280;10179;42.640;23.312;2024-03-25T02:32:55;92363.84;;;7.55;64.11
20037;BME280;10179;42.640;23.312;2024-03-25T02:35:21;92306.38;;;7.21;64.17
20037;BME280;10179;42.640;23.312;2024-03-25T02:37:47;92397.28;;;7.92;64.53
20037;BME280;10179;42.640;23.312;2024-03-25T02:40:14;92396.25;;;7.93;64.53
20037;BME280;10179;42.640;23.312;2024-03-25T02:42:39;92283.91;;;7.20;64.81
20037;BME280;10179;42.640;23.312;2024-03-25T02:45:05;92323.31;;;7.52;64.60
20037;BME280;10179;42.640;23.312;2024-03-25T02:47:31;92392.13;;;7.97;64.81
20037;BME280;10179;42.640;23.312;2024-03-25T02:49:57;92340.97;;;7.62;64.84
20037;BME280;10179;42.640;23.312;2024-03-25T02:52:22;92403.72;;;8.01;64.74
20037;BME280;10179;42.640;23.312;2024-03-25T02:54:47;92311.59;;;7.38;64.86
20037;BME280;10179;42.640;23.312;2024-03-25T02:57:13;92434.94;;;7.91;64.78
20037;BME280;10179;42.640;23.312;2024-03-25T02:59:38;92401.16;;;8.06;65.03
20037;BME280;10179;42.640;23.312;2024-03-25T03:02:04;92301.31;;;7.31;64.33
20037;BME280;10179;42.640;23.312;2024-03-25T03:04:29;92404.34;;;8.08;64.17
20037;BME280;10179;42.640;23.312;2024-03-25T03:06:56;92367.28;;;7.77;64.18
20037;BME280;10179;42.640;23.312;2024-03-25T03:09:21;92427.31;;;8.06;64.27
20037;BME280;10179;42.640;23.312;2024-03-25T03:11:46;92319.97;;;7.40;63.95
20037;BME280;10179;42.640;23.312;2024-03-25T03:14:12;92379.31;;;7.78;63.48
20037;BME280;10179;42.640;23.312;2024-03-25T03:16:37;92378.38;;;7.68;63.41
20037;BME280;10179;42.640;23.312;2024-03-25T03:19:03;92405.13;;;7.92;63.88
20037;BME280;10179;42.640;23.312;2024-03-25T03:21:28;92046.53;;;5.57;63.48
20037;BME280;10179;42.640;23.312;2024-03-25T03:23:55;92345.13;;;7.46;63.64
20037;BME280;10179;42.640;23.312;2024-03-25T03:26:20;92383.03;;;7.82;63.53
20037;BME280;10179;42.640;23.312;2024-03-25T03:28:46;92422.88;;;8.06;63.67
20037;BME280;10179;42.640;23.312;2024-03-25T03:31:11;92425.25;;;8.08;63.38
20037;BME280;10179;42.640;23.312;2024-03-25T03:33:37;92427.41;;;8.11;63.32
20037;BME280;10179;42.640;23.312;2024-03-25T03:36:02;92361.53;;;7.41;63.12
20037;BME280;10179;42.640;23.312;2024-03-25T03:38:27;92431.09;;;8.15;62.82
20037;BME280;10179;42.640;23.312;2024-03-25T03:41:00;92392.63;;;7.94;63.20
20037;BME280;10179;42.640;23.312;2024-03-25T03:43:26;92356.22;;;7.70;62.09
20037;BME280;10179;42.640;23.312;2024-03-25T03:45:51;92433.78;;;8.20;62.15
20037;BME280;10179;42.640;23.312;2024-03-25T03:48:17;92435.13;;;8.23;61.71
20037;BME280;10179;42.640;23.312;2024-03-25T03:50:42;92410.25;;;8.03;61.93
20037;BME280;10179;42.640;23.312;2024-03-25T03:53:08;92436.06;;;8.33;61.36
20037;BME280;10179;42.640;23.312;2024-03-25T03:55:33;92428.22;;;8.33;61.35
20037;BME280;10179;42.640;23.312;2024-03-25T03:57:59;92301.47;;;7.58;61.04
20037;BME280;10179;42.640;23.312;2024-03-25T04:00:24;92446.13;;;8.42;60.67
20037;BME280;10179;42.640;23.312;2024-03-25T04:02:49;92392.47;;;8.00;60.93
20037;BME280;10179;42.640;23.312;2024-03-25T04:05:15;92474.25;;;8.34;59.89
20037;BME280;10179;42.640;23.312;2024-03-25T04:07:40;92467.94;;;8.47;60.19
20037;BME280;10179;42.640;23.312;2024-03-25T04:10:06;92389.72;;;7.90;59.87
20037;BME280;10179;42.640;23.312;2024-03-25T04:12:31;92470.38;;;8.54;60.23
20037;BME280;10179;42.640;23.312;2024-03-25T04:14:57;92406.78;;;8.15;60.19
20037;BME280;10179;42.640;23.312;2024-03-25T04:17:23;92362.13;;;7.82;59.72
20037;BME280;10179;42.640;23.312;2024-03-25T04:19:49;92418.78;;;7.94;58.96
20037;BME280;10179;42.640;23.312;2024-03-25T04:22:14;92413.03;;;7.97;59.02
20037;BME280;10179;42.640;23.312;2024-03-25T04:24:40;92409.88;;;8.11;58.60
20037;BME280;10179;42.640;23.312;2024-03-25T04:27:05;92475.06;;;8.52;58.88
20037;BME280;10179;42.640;23.312;2024-03-25T04:29:30;92369.97;;;7.82;57.80
20037;BME280;10179;42.640;23.312;2024-03-25T04:31:56;92452.81;;;8.32;57.85
20037;BME280;10179;42.640;23.312;2024-03-25T04:34:21;92491.00;;;8.50;57.91
20037;BME280;10179;42.640;23.312;2024-03-25T04:36:48;92424.63;;;7.67;57.64
20037;BME280;10179;42.640;23.312;2024-03-25T04:39:14;92504.72;;;8.41;57.52
20037;BME280;10179;42.640;23.312;2024-03-25T04:41:39;92440.47;;;7.77;57.32
20037;BME280;10179;42.640;23.312;2024-03-25T04:44:06;92487.03;;;8.14;57.49
20037;BME280;10179;42.640;23.312;2024-03-25T04:46:31;92468.50;;;7.99;57.46
20037;BME280;10179;42.640;23.312;2024-03-25T04:48:56;92511.28;;;8.26;57.74
20037;BME280;10179;42.640;23.312;2024-03-25T04:51:22;92439.50;;;7.67;57.86
20037;BME280;10179;42.640;23.312;2024-03-25T04:53:47;92469.84;;;7.84;57.86
20037;BME280;10179;42.640;23.312;2024-03-25T04:56:12;92472.00;;;7.87;57.70
20037;BME280;10179;42.640;23.312;2024-03-25T04:58:38;92504.53;;;7.97;58.21
20037;BME280;10179;42.640;23.312;2024-03-25T05:01:04;92495.13;;;7.96;57.86
20037;BME280;10179;42.640;23.312;2024-03-25T05:03:29;92487.06;;;7.97;58.51
20037;BME280;10179;42.640;23.312;2024-03-25T05:05:55;92508.13;;;8.07;58.42
20037;BME280;10179;42.640;23.312;2024-03-25T05:08:20;92465.38;;;7.68;58.33
20037;BME280;10179;42.640;23.312;2024-03-25T05:10:46;92534.44;;;8.01;57.65
20037;BME280;10179;42.640;23.312;2024-03-25T05:13:11;92554.25;;;8.30;57.30
20037;BME280;10179;42.640;23.312;2024-03-25T05:15:37;92507.84;;;7.75;57.59
20037;BME280;10179;42.640;23.312;2024-03-25T05:18:02;92540.06;;;8.26;57.56
20037;BME280;10179;42.640;23.312;2024-03-25T05:20:28;92564.97;;;8.46;57.22
20037;BME280;10179;42.640;23.312;2024-03-25T05:22:53;92272.31;;;6.65;57.11
20037;BME280;10179;42.640;23.312;2024-03-25T05:25:19;92570.50;;;8.66;56.95
20037;BME280;10179;42.640;23.312;2024-03-25T05:27:49;92498.84;;;8.33;57.32
20037;BME280;10179;42.640;23.312;2024-03-25T05:30:15;92585.00;;;8.91;56.54
20037;BME280;10179;42.640;23.312;2024-03-25T05:32:40;92571.50;;;8.99;56.17
20037;BME280;10179;42.640;23.312;2024-03-25T05:35:06;92427.94;;;8.13;55.69
20037;BME280;10179;42.640;23.312;2024-03-25T05:37:32;92486.09;;;8.54;54.87
20037;BME280;10179;42.640;23.312;2024-03-25T05:39:59;92262.41;;;7.13;55.91
20037;BME280;10179;42.640;23.312;2024-03-25T05:42:24;92456.59;;;8.42;55.59
20037;BME280;10179;42.640;23.312;2024-03-25T05:44:50;92578.22;;;9.33;55.20
20037;BME280;10179;42.640;23.312;2024-03-25T05:47:15;92067.13;;;5.87;55.28
20037;BME280;10179;42.640;23.312;2024-03-25T05:49:40;92538.13;;;8.89;54.58
20037;BME280;10179;42.640;23.312;2024-03-25T05:52:06;92609.84;;;9.27;54.71
20037;BME280;10179;42.640;23.312;2024-03-25T05:54:32;92522.69;;;8.71;54.18
20037;BME280;10179;42.640;23.312;2024-03-25T05:56:57;92574.34;;;8.97;53.67
20037;BME280;10179;42.640;23.312;2024-03-25T05:59:23;92569.75;;;8.88;54.29
20037;BME280;10179;42.640;23.312;2024-03-25T06:01:48;92628.09;;;9.22;53.69
20037;BME280;10179;42.640;23.312;2024-03-25T06:04:13;92607.31;;;9.15;53.58
20037;BME280;10179;42.640;23.312;2024-03-25T06:06:39;92508.59;;;8.55;53.86
20037;BME280;10179;42.640;23.312;2024-03-25T06:09:04;92633.50;;;9.32;54.30
20037;BME280;10179;42.640;23.312;2024-03-25T06:11:30;92592.59;;;9.09;54.32
20037;BME280;10179;42.640;23.312;2024-03-25T06:13:56;92639.78;;;9.53;54.35
20037;BME280;10179;42.640;23.312;2024-03-25T06:16:21;92640.72;;;9.64;53.93
20037;BME280;10179;42.640;23.312;2024-03-25T06:18:47;92602.97;;;9.43;53.37
20037;BME280;10179;42.640;23.312;2024-03-25T06:21:12;92647.97;;;9.78;52.46
20037;BME280;10179;42.640;23.312;2024-03-25T06:23:38;92614.63;;;9.52;51.80
20037;BME280;10179;42.640;23.312;2024-03-25T06:26:03;92620.88;;;9.51;51.16
20037;BME280;10179;42.640;23.312;2024-03-25T06:28:29;92601.53;;;9.52;51.51
20037;BME280;10179;42.640;23.312;2024-03-25T06:30:54;92662.28;;;10.15;50.85
20037;BME280;10179;42.640;23.312;2024-03-25T06:33:38;92658.66;;;10.43;49.73
20037;BME280;10179;42.640;23.312;2024-03-25T06:36:22;92666.75;;;10.68;48.43
20037;BME280;10179;42.640;23.312;2024-03-25T06:38:48;92642.16;;;10.80;46.78
20037;BME280;10179;42.640;23.312;2024-03-25T06:41:13;92640.66;;;10.89;45.53
20037;BME280;10179;42.640;23.312;2024-03-25T06:43:39;92536.81;;;10.39;44.56
20037;BME280;10179;42.640;23.312;2024-03-25T06:46:05;92640.81;;;11.09;44.62
20037;BME280;10179;42.640;23.312;2024-03-25T06:48:31;92689.22;;;11.61;43.67
20037;BME280;10179;42.640;23.312;2024-03-25T06:50:57;92684.88;;;11.82;43.60
20037;BME280;10179;42.640;23.312;2024-03-25T06:53:23;92693.94;;;12.01;42.41
20037;BME280;10179;42.640;23.312;2024-03-25T06:55:56;92690.84;;;12.20;41.73
20037;BME280;10179;42.640;23.312;2024-03-25T06:58:23;92718.28;;;12.34;41.48
20037;BME280;10179;42.640;23.312;2024-03-25T07:00:49;92692.53;;;12.51;40.70
20037;BME280;10179;42.640;23.312;2024-03-25T07:03:19;92687.28;;;12.72;40.60
20037;BME280;10179;42.640;23.312;2024-03-25T07:05:47;92693.66;;;12.96;39.86
20037;BME280;10179;42.640;23.312;2024-03-25T07:08:14;92688.38;;;13.06;38.71
20037;BME280;10179;42.640;23.312;2024-03-25T07:10:42;92686.81;;;13.26;38.08
20037;BME280;10179;42.640;23.312;2024-03-25T07:13:08;92693.63;;;13.57;37.86
20037;BME280;10179;42.640;23.312;2024-03-25T07:15:34;92643.00;;;13.50;37.48
20037;BME280;10179;42.640;23.312;2024-03-25T07:17:59;92684.59;;;13.89;37.06
20037;BME280;10179;42.640;23.312;2024-03-25T07:20:25;92714.09;;;14.12;36.86
20037;BME280;10179;42.640;23.312;2024-03-25T07:22:52;92708.53;;;14.18;36.08
20037;BME280;10179;42.640;23.312;2024-03-25T07:25:20;92680.31;;;14.03;36.27
20037;BME280;10179;42.640;23.312;2024-03-25T07:27:45;92718.22;;;14.38;36.81
20037;BME280;10179;42.640;23.312;2024-03-25T07:30:10;92713.75;;;14.33;36.40
20037;BME280;10179;42.640;23.312;2024-03-25T07:32:36;92732.19;;;14.54;35.65
20037;BME280;10179;42.640;23.312;2024-03-25T07:35:01;92392.56;;;12.55;35.60
20037;BME280;10179;42.640;23.312;2024-03-25T07:37:26;92474.63;;;13.03;35.71
20037;BME280;10179;42.640;23.312;2024-03-25T07:39:52;92744.63;;;14.38;35.44
20037;BME280;10179;42.640;23.312;2024-03-25T07:42:17;92715.28;;;14.55;35.35
20037;BME280;10179;42.640;23.312;2024-03-25T07:44:43;92723.81;;;14.86;34.98
20037;BME280;10179;42.640;23.312;2024-03-25T07:47:09;92471.09;;;13.33;34.85
20037;BME280;10179;42.640;23.312;2024-03-25T07:49:34;92592.94;;;14.05;34.85
20037;BME280;10179;42.640;23.312;2024-03-25T07:52:03;92660.69;;;14.25;35.42
20037;BME280;10179;42.640;23.312;2024-03-25T07:54:28;92652.34;;;14.02;35.73
20037;BME280;10179;42.640;23.312;2024-03-25T07:56:54;92633.91;;;13.92;35.71
20037;BME280;10179;42.640;23.312;2024-03-25T07:59:19;92718.69;;;14.61;35.54
20037;BME280;10179;42.640;23.312;2024-03-25T08:01:45;92667.41;;;14.02;35.91
20037;BME280;10179;42.640;23.312;2024-03-25T08:04:10;92677.47;;;13.95;35.79
20037;BME280;10179;42.640;23.312;2024-03-25T08:06:36;92724.00;;;14.45;35.51
20037;BME280;10179;42.640;23.312;2024-03-25T08:09:01;92751.41;;;14.70;35.34
20037;BME280;10179;42.640;23.312;2024-03-25T08:11:28;92705.41;;;14.71;34.94
20037;BME280;10179;42.640;23.312;2024-03-25T08:13:54;92629.13;;;14.04;34.70
20037;BME280;10179;42.640;23.312;2024-03-25T08:16:19;92737.38;;;14.74;35.57
20037;BME280;10179;42.640;23.312;2024-03-25T08:18:45;92725.00;;;14.65;35.67
20037;BME280;10179;42.640;23.312;2024-03-25T08:21:10;92723.16;;;14.65;35.52
20037;BME280;10179;42.640;23.312;2024-03-25T08:23:35;92717.66;;;14.51;35.41
20037;BME280;10179;42.640;23.312;2024-03-25T08:26:01;92734.06;;;14.53;35.49
20037;BME280;10179;42.640;23.312;2024-03-25T08:28:27;92658.31;;;13.07;35.89
20037;BME280;10179;42.640;23.312;2024-03-25T08:30:52;92745.16;;;14.35;36.00
20037;BME280;10179;42.640;23.312;2024-03-25T08:33:18;92718.66;;;13.91;36.87
20037;BME280;10179;42.640;23.312;2024-03-25T08:35:43;92697.81;;;13.84;36.30
20037;BME280;10179;42.640;23.312;2024-03-25T08:38:08;92701.47;;;13.98;36.80
20037;BME280;10179;42.640;23.312;2024-03-25T08:40:34;92750.72;;;14.33;36.56
20037;BME280;10179;42.640;23.312;2024-03-25T08:42:59;92742.56;;;14.25;36.24
20037;BME280;10179;42.640;23.312;2024-03-25T08:45:24;92716.22;;;14.09;36.17
20037;BME280;10179;42.640;23.312;2024-03-25T08:47:50;92759.13;;;14.46;35.85
20037;BME280;10179;42.640;23.312;2024-03-25T08:50:15;92666.66;;;13.91;35.55
20037;BME280;10179;42.640;23.312;2024-03-25T08:52:40;92765.75;;;14.38;36.08
20037;BME280;10179;42.640;23.312;2024-03-25T08:55:06;92738.69;;;13.97;35.50
20037;BME280;10179;42.640;23.312;2024-03-25T08:57:32;92743.22;;;13.81;36.09
20037;BME280;10179;42.640;23.312;2024-03-25T08:59:57;92768.78;;;13.85;36.65
20037;BME280;10179;42.640;23.312;2024-03-25T09:02:23;92668.91;;;13.28;36.33
20037;BME280;10179;42.640;23.312;2024-03-25T09:04:48;92653.59;;;13.09;36.39
20037;BME280;10179;42.640;23.312;2024-03-25T09:07:14;92771.97;;;13.88;36.76
20037;BME280;10179;42.640;23.312;2024-03-25T09:09:39;92780.13;;;13.96;36.96
20037;BME280;10179;42.640;23.312;2024-03-25T09:12:23;92785.91;;;14.14;36.79
20037;BME280;10179;42.640;23.312;2024-03-25T09:14:49;92785.91;;;14.14;35.58
20037;BME280;10179;42.640;23.312;2024-03-25T09:17:14;92668.88;;;13.07;36.18
20037;BME280;10179;42.640;23.312;2024-03-25T09:19:41;92786.94;;;14.18;36.08
20037;BME280;10179;42.640;23.312;2024-03-25T09:22:06;92760.59;;;14.07;35.30
20037;BME280;10179;42.640;23.312;2024-03-25T09:24:31;92727.41;;;13.71;34.62
20037;BME280;10179;42.640;23.312;2024-03-25T09:26:57;92806.53;;;13.96;35.46
20037;BME280;10179;42.640;23.312;2024-03-25T09:29:22;92802.88;;;13.87;36.42
20037;BME280;10179;42.640;23.312;2024-03-25T09:31:47;92718.19;;;13.32;36.45
20037;BME280;10179;42.640;23.312;2024-03-25T09:34:13;92706.59;;;13.28;36.45
20037;BME280;10179;42.640;23.312;2024-03-25T09:36:38;92784.13;;;13.38;36.79
20037;BME280;10179;42.640;23.312;2024-03-25T09:39:04;92802.31;;;14.05;36.08
20037;BME280;10179;42.640;23.312;2024-03-25T09:41:30;92755.88;;;13.69;35.91
20037;BME280;10179;42.640;23.312;2024-03-25T09:43:59;92785.97;;;13.83;36.09
20037;BME280;10179;42.640;23.312;2024-03-25T09:46:26;92795.19;;;13.96;36.04
20037;BME280;10179;42.640;23.312;2024-03-25T09:48:54;92800.19;;;13.92;35.70
20037;BME280;10179;42.640;23.312;2024-03-25T09:51:20;92804.44;;;13.88;35.89
20037;BME280;10179;42.640;23.312;2024-03-25T09:53:46;92794.41;;;13.85;35.80
20037;BME280;10179;42.640;23.312;2024-03-25T09:56:12;92761.69;;;13.60;36.32
20037;BME280;10179;42.640;23.312;2024-03-25T09:58:39;92799.19;;;13.83;36.46
20037;BME280;10179;42.640;23.312;2024-03-25T10:01:04;92805.22;;;13.89;35.83
20037;BME280;10179;42.640;23.312;2024-03-25T10:03:30;92690.50;;;12.99;36.15
20037;BME280;10179;42.640;23.312;2024-03-25T10:05:55;92782.81;;;13.55;36.49
20037;BME280;10179;42.640;23.312;2024-03-25T10:08:21;92764.34;;;13.40;36.92
20037;BME280;10179;42.640;23.312;2024-03-25T10:10:47;92653.56;;;12.58;36.77
20037;BME280;10179;42.640;23.312;2024-03-25T10:13:12;92803.13;;;13.70;37.02
20037;BME280;10179;42.640;23.312;2024-03-25T10:15:38;92755.38;;;13.46;36.04
20037;BME280;10179;42.640;23.312;2024-03-25T10:18:03;92811.28;;;13.99;36.08
20037;BME280;10179;42.640;23.312;2024-03-25T10:20:29;92767.25;;;13.64;35.30
20037;BME280;10179;42.640;23.312;2024-03-25T10:22:54;92778.06;;;13.78;35.16
20037;BME280;10179;42.640;23.312;2024-03-25T10:27:56;92828.69;;;14.11;33.63
20037;BME280;10179;42.640;23.312;2024-03-25T10:30:21;92816.03;;;14.02;34.20
20037;BME280;10179;42.640;23.312;2024-03-25T10:33:03;92816.56;;;14.04;34.04
20037;BME280;10179;42.640;23.312;2024-03-25T10:35:31;92820.78;;;14.00;34.33
20037;BME280;10179;42.640;23.312;2024-03-25T10:37:58;92781.50;;;13.43;34.72
20037;BME280;10179;42.640;23.312;2024-03-25T10:40:27;92821.84;;;13.99;34.28
20037;BME280;10179;42.640;23.312;2024-03-25T10:43:09;92820.00;;;14.05;32.65
20037;BME280;10179;42.640;23.312;2024-03-25T10:45:41;92810.22;;;13.95;32.31
20037;BME280;10179;42.640;23.312;2024-03-25T10:50:34;92784.09;;;13.89;32.02
20037;BME280;10179;42.640;23.312;2024-03-25T10:53:02;92417.59;;;11.55;32.18
20037;BME280;10179;42.640;23.312;2024-03-25T10:55:29;92707.38;;;13.29;31.44
20037;BME280;10179;42.640;23.312;2024-03-25T10:57:56;92811.28;;;14.04;31.29
20037;BME280;10179;42.640;23.312;2024-03-25T11:00:22;92774.88;;;13.76;31.91
20037;BME280;10179;42.640;23.312;2024-03-25T11:02:48;92818.69;;;14.07;31.45
20037;BME280;10179;42.640;23.312;2024-03-25T11:05:15;92808.38;;;14.01;32.21
20037;BME280;10179;42.640;23.312;2024-03-25T11:07:41;92579.25;;;12.31;32.59
20037;BME280;10179;42.640;23.312;2024-03-25T11:10:08;92801.00;;;13.93;32.55
20037;BME280;10179;42.640;23.312;2024-03-25T11:12:38;92820.25;;;14.08;32.51
20037;BME280;10179;42.640;23.312;2024-03-25T11:15:05;92763.81;;;13.84;32.71
20037;BME280;10179;42.640;23.312;2024-03-25T11:17:32;92850.59;;;14.16;32.82
20037;BME280;10179;42.640;23.312;2024-03-25T11:20:15;92805.44;;;14.18;32.79
20037;BME280;10179;42.640;23.312;2024-03-25T11:22:51;92814.41;;;14.32;32.64
20037;BME280;10179;42.640;23.312;2024-03-25T11:25:18;92820.19;;;14.34;32.36
20037;BME280;10179;42.640;23.312;2024-03-25T11:27:45;92722.66;;;13.63;32.45
20037;BME280;10179;42.640;23.312;2024-03-25T11:30:12;92752.72;;;13.67;32.98
20037;BME280;10179;42.640;23.312;2024-03-25T11:35:09;92721.63;;;13.28;34.48
20037;BME280;10179;42.640;23.312;2024-03-25T11:37:40;92817.09;;;13.76;35.42
20037;BME280;10179;42.640;23.312;2024-03-25T11:40:06;92708.13;;;12.78;36.34
20037;BME280;10179;42.640;23.312;2024-03-25T11:42:32;92838.47;;;13.49;36.51
20037;BME280;10179;42.640;23.312;2024-03-25T11:44:59;92787.03;;;13.46;35.90
20037;BME280;10179;42.640;23.312;2024-03-25T11:47:25;92724.78;;;13.40;35.29
20037;BME280;10179;42.640;23.312;2024-03-25T11:49:51;92815.97;;;14.28;34.13
20037;BME280;10179;42.640;23.312;2024-03-25T11:52:17;92818.22;;;14.80;33.42
20037;BME280;10179;42.640;23.312;2024-03-25T11:54:42;92813.56;;;15.17;32.89
20037;BME280;10179;42.640;23.312;2024-03-25T11:57:08;92824.19;;;15.51;32.59
20037;BME280;10179;42.640;23.312;2024-03-25T11:59:34;92819.06;;;15.65;32.20
20037;BME280;10179;42.640;23.312;2024-03-25T12:01:59;92812.75;;;15.66;32.35
20037;BME280;10179;42.640;23.312;2024-03-25T12:04:26;92820.25;;;15.43;32.48
20037;BME280;10179;42.640;23.312;2024-03-25T12:06:54;92830.34;;;15.41;32.67
20037;BME280;10179;42.640;23.312;2024-03-25T12:09:22;92821.34;;;15.37;32.72
20037;BME280;10179;42.640;23.312;2024-03-25T12:12:07;92795.59;;;15.09;32.38
20037;BME280;10179;42.640;23.312;2024-03-25T12:14:33;92788.63;;;14.73;32.45
20037;BME280;10179;42.640;23.312;2024-03-25T12:16:59;92836.22;;;14.78;32.31
20037;BME280;10179;42.640;23.312;2024-03-25T12:19:24;92820.72;;;14.46;31.81
20037;BME280;10179;42.640;23.312;2024-03-25T12:21:50;92834.47;;;14.18;32.15
20037;BME280;10179;42.640;23.312;2024-03-25T12:24:15;92763.84;;;13.48;33.40
20037;BME280;10179;42.640;23.312;2024-03-25T12:26:41;92830.28;;;13.76;33.35
20037;BME280;10179;42.640;23.312;2024-03-25T12:29:07;92735.28;;;12.94;33.55
20037;BME280;10179;42.640;23.312;2024-03-25T12:31:32;92824.22;;;13.50;33.99
20037;BME280;10179;42.640;23.312;2024-03-25T12:33:58;92742.88;;;12.80;34.73
20037;BME280;10179;42.640;23.312;2024-03-25T12:36:23;92843.97;;;13.32;34.71
20037;BME280;10179;42.640;23.312;2024-03-25T12:38:55;92796.44;;;12.96;34.63
20037;BME280;10179;42.640;23.312;2024-03-25T12:41:24;92819.63;;;12.99;34.75
20037;BME280;10179;42.640;23.312;2024-03-25T12:43:50;92843.94;;;13.22;34.21
20037;BME280;10179;42.640;23.312;2024-03-25T12:46:16;92560.78;;;11.32;34.42
20037;BME280;10179;42.640;23.312;2024-03-25T12:48:42;92870.81;;;13.19;34.35
20037;BME280;10179;42.640;23.312;2024-03-25T12:51:15;92839.97;;;13.19;34.19
20037;BME280;10179;42.640;23.312;2024-03-25T12:53:41;92849.22;;;13.22;34.69
20037;BME280;10179;42.640;23.312;2024-03-25T12:56:06;92716.97;;;12.41;34.45
20037;BME280;10179;42.640;23.312;2024-03-25T12:58:33;92844.78;;;13.32;33.94